Stickney, Illinois
Current Conditions -  °F | °C
As of 3:53 AM on Wednesday 22 Oct 2014 (Local Time) from KMDW Reporting Station
Broken Clouds Broken Clouds  
Wind Chill: 48°   Ceiling: 2900
Heat Index: 48°   Visibility: 10mi
Dew Point: 40°   Wind: 0mph
Humidity: 74%   Direction: NA
Pressure: 30.29"   Gusts: NA
Location:  41.789°N, 87.7699°W
Report Text: KMDW 220853Z 00000KT 10SM BKN029 09/04 A3029 RMK AO2 SLP258 T00890044 51012
Loading
Personal Weather Stations






























Interactive Weather Map
Tropical Storm Tracking
New forecast layout! Learn more

10-Day Weather Forecast

Advertisements
Track Severe Weather on mobile